Time;durP1;ratioP1;P1;durP2;ratioP2;P2;SDS_P1;SDS_P2;PMS_P1;PMS_P2;Temp;Humidity;BMP_temperature;BMP_pressure;BME280_temperature;BME280_humidity;BME280_pressure;Samples;Min_cycle;Max_cycle;Signal;HPM_P1;HPM_P2
2024/04/24 00:01:40;;;;;;;;;;;;;;;8.58;86.32;99956.72;5525579;26;19947;-77
2024/04/24 00:04:32;;;;;;;;;;;;;;;8.75;85.93;99947.75;5526890;26;19951;-77
2024/04/24 00:07:22;;;;;;;;;;;;;;;8.69;85.45;99937.41;5527078;26;20296;-78
2024/04/24 00:10:14;;;;;;;;;;;;;;;8.66;85.46;99948.91;5499918;26;20475;-78
2024/04/24 00:13:06;;;;;;;;;;;;;;;8.66;85.08;99932.63;5526035;26;19947;-76
2024/04/24 00:16:01;;;;;;;;;;;;;;;8.61;85.79;99933.59;5524805;26;19947;-77
2024/04/24 00:18:53;;;;;;;;;;;;;;;8.55;85.42;99932.97;5500329;26;19962;-77
2024/04/24 00:21:43;;;;;;;;;;;;;;;8.54;85.87;99936.00;5499082;26;19951;-76
2024/04/24 00:24:35;;;;;;;;;;;;;;;8.56;85.94;99925.63;5498464;26;19947;-79
2024/04/24 00:27:27;;;;;;;;;;;;;;;8.64;85.58;99924.81;5525879;26;19947;-77
2024/04/24 00:30:20;;;;;;;;;;;;;;;8.67;85.72;99921.50;5500117;26;19939;-77
2024/04/24 00:33:09;;;;;;;;;;;;;;;8.58;84.98;99909.88;5524628;26;19948;-77
2024/04/24 00:35:59;;;;;;;;;;;;;;;8.56;85.19;99907.47;5524756;26;19948;-76
2024/04/24 00:38:51;;;;;;;;;;;;;;;8.61;85.28;99903.00;5500257;26;19951;-77
2024/04/24 00:41:48;;;;;;;;;;;;;;;8.62;84.93;99902.69;5539435;25;20393;-77
2024/04/24 00:44:40;;;;;;;;;;;;;;;8.61;84.74;99903.00;5519166;25;19951;-77
2024/04/24 00:47:28;;;;;;;;;;;;;;;8.67;84.62;99896.28;5542001;25;20290;-77
2024/04/24 00:50:16;;;;;;;;;;;;;;;8.75;83.76;99895.47;5491360;26;19951;-77
2024/04/24 00:53:06;;;;;;;;;;;;;;;8.74;83.67;99894.66;5492596;25;20389;-76
2024/04/24 00:55:55;;;;;;;;;;;;;;;8.78;83.70;99902.97;5561899;25;19946;-76
2024/04/24 00:58:49;;;;;;;;;;;;;;;8.84;82.60;99896.22;5519487;25;20413;-77
2024/04/24 01:01:40;;;;;;;;;;;;;;;8.97;82.40;99898.75;5513138;25;19960;-76
2024/04/24 01:04:32;;;;;;;;;;;;;;;9.00;81.56;99887.25;5508858;25;19947;-77
2024/04/24 01:07:24;;;;;;;;;;;;;;;9.05;81.54;99883.56;5561959;25;19951;-76
2024/04/24 01:10:18;;;;;;;;;;;;;;;9.04;80.72;99895.53;5528110;25;19951;-77
2024/04/24 01:13:10;;;;;;;;;;;;;;;9.00;81.11;99891.88;5498309;26;19951;-77
2024/04/24 01:16:06;;;;;;;;;;;;;;;8.98;81.75;99894.13;5498798;26;19947;-78
2024/04/24 01:19:01;;;;;;;;;;;;;;;9.04;81.44;99879.25;5524686;25;19947;-76
2024/04/24 01:21:59;;;;;;;;;;;;;;;8.87;81.20;99877.44;5524270;25;19951;-78
2024/04/24 01:24:58;;;;;;;;;;;;;;;8.78;81.16;99873.94;5523412;25;19939;-77
2024/04/24 01:27:50;;;;;;;;;;;;;;;8.66;81.45;99871.09;5524156;25;20300;-77
2024/04/24 01:30:47;;;;;;;;;;;;;;;8.64;80.65;99864.41;5523763;26;19947;-77
2024/04/24 01:33:39;;;;;;;;;;;;;;;8.57;81.34;99864.91;5525398;25;19950;-78
2024/04/24 01:36:31;;;;;;;;;;;;;;;8.82;81.33;99868.66;5498919;26;19948;-78
2024/04/24 01:39:21;;;;;;;;;;;;;;;8.57;82.30;99873.03;5523851;25;20392;-79
2024/04/24 01:42:13;;;;;;;;;;;;;;;8.84;81.39;99869.94;5521783;25;19963;-76
2024/04/24 01:45:05;;;;;;;;;;;;;;;8.71;81.55;99870.13;5522217;25;19951;-77
2024/04/24 01:47:52;;;;;;;;;;;;;;;8.86;81.86;99869.59;5523618;26;19947;-76
2024/04/24 01:50:44;;;;;;;;;;;;;;;8.83;81.72;99872.97;5522695;25;19949;-77
2024/04/24 01:53:36;;;;;;;;;;;;;;;8.92;81.92;99865.59;5522303;25;19947;-76
2024/04/24 01:56:28;;;;;;;;;;;;;;;9.05;82.16;99870.00;5522075;26;19947;-76
2024/04/24 01:59:20;;;;;;;;;;;;;;;9.01;82.42;99860.94;5522179;25;20389;-77
2024/04/24 02:02:12;;;;;;;;;;;;;;;8.86;83.61;99872.31;5522971;25;20386;-79
2024/04/24 02:05:08;;;;;;;;;;;;;;;8.83;84.31;99878.41;5525749;25;19951;-78
2024/04/24 02:08:00;;;;;;;;;;;;;;;8.89;85.00;99877.88;5525074;25;19947;-75
2024/04/24 02:10:52;;;;;;;;;;;;;;;8.93;84.87;99878.84;5523186;25;19952;-76
2024/04/24 02:13:44;;;;;;;;;;;;;;;9.00;84.96;99867.47;5521007;26;19947;-77
2024/04/24 02:16:34;;;;;;;;;;;;;;;8.96;84.66;99870.06;5522004;25;19967;-77
2024/04/24 02:19:26;;;;;;;;;;;;;;;9.04;84.36;99867.66;5522797;25;19951;-77
2024/04/24 02:22:18;;;;;;;;;;;;;;;9.08;84.69;99868.56;5523996;25;19948;-76
2024/04/24 02:28:24;;;;;;;;;;;;;;;9.14;84.08;99862.66;5524427;25;19986;-78
2024/04/24 02:31:16;;;;;;;;;;;;;;;9.13;83.58;99865.69;5524649;25;19951;-76
2024/04/24 02:34:08;;;;;;;;;;;;;;;9.08;83.82;99863.94;5524166;25;20401;-76
2024/04/24 02:37:00;;;;;;;;;;;;;;;9.02;83.70;99863.34;5523992;26;19955;-77
2024/04/24 02:39:52;;;;;;;;;;;;;;;9.17;83.73;99867.41;5527917;25;19951;-78
2024/04/24 02:42:41;;;;;;;;;;;;;;;9.23;83.10;99862.59;5501202;26;19947;-76
2024/04/24 02:45:33;;;;;;;;;;;;;;;9.37;82.78;99861.25;5527064;25;19951;-79
2024/04/24 02:48:23;;;;;;;;;;;;;;;9.52;82.52;99846.31;5527363;26;19940;-78
2024/04/24 02:51:15;;;;;;;;;;;;;;;9.41;81.98;99847.81;5526571;26;19951;-77
2024/04/24 02:54:07;;;;;;;;;;;;;;;9.49;82.95;99846.19;5532410;25;19951;-77
2024/04/24 02:56:59;;;;;;;;;;;;;;;9.57;82.41;99848.84;5549201;25;19951;-77
2024/04/24 02:59:51;;;;;;;;;;;;;;;9.31;81.46;99840.84;5565861;25;20407;-76
2024/04/24 03:02:43;;;;;;;;;;;;;;;9.32;81.92;99847.88;5537337;25;19950;-78
2024/04/24 03:05:35;;;;;;;;;;;;;;;9.26;82.43;99838.31;5489248;26;19939;-77
2024/04/24 03:08:25;;;;;;;;;;;;;;;9.33;81.89;99835.91;5489654;26;20342;-78
2024/04/24 03:11:18;;;;;;;;;;;;;;;9.26;82.15;99837.53;5503527;25;19950;-78
2024/04/24 03:14:10;;;;;;;;;;;;;;;9.29;82.91;99845.81;5537692;25;20379;-78
2024/04/24 03:17:02;;;;;;;;;;;;;;;9.45;83.12;99843.31;5490771;26;19948;-77
2024/04/24 03:19:54;;;;;;;;;;;;;;;9.50;82.58;99845.84;5489044;26;19952;-77
2024/04/24 03:22:46;;;;;;;;;;;;;;;9.41;81.71;99840.47;5490554;26;19949;-76
2024/04/24 03:25:36;;;;;;;;;;;;;;;9.41;82.19;99847.81;5488904;26;19951;-78
2024/04/24 03:28:28;;;;;;;;;;;;;;;9.29;82.67;99848.53;5489408;26;19940;-76
2024/04/24 03:31:21;;;;;;;;;;;;;;;9.39;81.32;99845.44;5489229;26;19948;-76
2024/04/24 03:34:10;;;;;;;;;;;;;;;9.35;81.03;99841.78;5514199;26;20000;-77
2024/04/24 03:37:00;;;;;;;;;;;;;;;9.48;81.69;99850.00;5490120;26;19955;-76
2024/04/24 03:39:52;;;;;;;;;;;;;;;9.44;81.69;99853.41;5488970;26;19952;-78
2024/04/24 03:42:44;;;;;;;;;;;;;;;9.14;83.16;99856.44;5488732;26;19955;-77
2024/04/24 03:45:36;;;;;;;;;;;;;;;9.13;83.64;99865.69;5491144;26;19948;-77
2024/04/24 03:48:25;;;;;;;;;;;;;;;9.07;84.23;99861.56;5490269;26;19952;-77
2024/04/24 03:51:15;;;;;;;;;;;;;;;9.27;83.81;99863.53;5515340;25;19946;-79
2024/04/24 03:54:07;;;;;;;;;;;;;;;9.12;83.70;99847.81;5536604;25;19947;-78
2024/04/24 03:56:59;;;;;;;;;;;;;;;9.37;82.41;99823.25;5562345;25;20303;-77
2024/04/24 03:59:51;;;;;;;;;;;;;;;9.56;82.32;99822.00;5558827;25;19947;-77
2024/04/24 04:02:43;;;;;;;;;;;;;;;9.52;80.84;99812.94;5522340;25;19951;-78
2024/04/24 04:05:35;;;;;;;;;;;;;;;9.41;80.70;99829.63;5531221;25;19955;-77
2024/04/24 04:08:24;;;;;;;;;;;;;;;9.21;80.47;99826.84;5525302;26;19947;-76
2024/04/24 04:11:14;;;;;;;;;;;;;;;9.18;81.14;99824.81;5505940;26;19947;-78
2024/04/24 04:14:01;;;;;;;;;;;;;;;9.16;81.47;99827.84;5526465;26;19951;-76
2024/04/24 04:16:53;;;;;;;;;;;;;;;9.08;81.60;99825.97;5525565;26;19949;-78
2024/04/24 04:19:45;;;;;;;;;;;;;;;9.05;81.14;99823.09;5529226;25;20494;-79
2024/04/24 04:22:35;;;;;;;;;;;;;;;9.17;81.38;99818.59;5542184;25;19972;-76
2024/04/24 04:25:27;;;;;;;;;;;;;;;9.28;80.91;99825.22;5488991;26;19948;-78
2024/04/24 04:28:19;;;;;;;;;;;;;;;9.30;81.29;99828.41;5490035;26;19948;-77
2024/04/24 04:31:11;;;;;;;;;;;;;;;9.27;82.24;99839.91;5490026;26;19948;-78
2024/04/24 04:34:03;;;;;;;;;;;;;;;9.31;82.08;99838.13;5504424;25;20291;-78
2024/04/24 04:36:58;;;;;;;;;;;;;;;9.45;81.69;99840.59;5526188;25;20392;-77
2024/04/24 04:39:50;;;;;;;;;;;;;;;9.43;82.36;99845.56;5527353;26;19951;-77
2024/04/24 04:42:42;;;;;;;;;;;;;;;9.46;81.97;99853.03;5525214;26;19951;-77
2024/04/24 04:45:34;;;;;;;;;;;;;;;9.40;82.29;99843.50;5526777;26;19951;-77
2024/04/24 04:48:27;;;;;;;;;;;;;;;9.35;81.60;99849.13;5526729;26;19951;-78
2024/04/24 04:51:16;;;;;;;;;;;;;;;9.41;81.90;99845.91;5525319;25;19951;-79
2024/04/24 04:54:06;;;;;;;;;;;;;;;9.42;82.15;99852.91;5499563;26;19974;-77
2024/04/24 04:56:58;;;;;;;;;;;;;;;9.35;81.90;99858.06;5488121;26;19948;-77
2024/04/24 04:59:50;;;;;;;;;;;;;;;9.29;82.28;99864.81;5487010;26;19955;-77
2024/04/24 05:02:42;;;;;;;;;;;;;;;9.38;82.41;99864.75;5487585;26;19952;-77
2024/04/24 05:05:34;;;;;;;;;;;;;;;9.40;81.78;99854.34;5489978;26;19951;-77
2024/04/24 05:08:21;;;;;;;;;;;;;;;9.23;81.85;99849.84;5487967;26;20301;-77
2024/04/24 05:11:13;;;;;;;;;;;;;;;9.92;82.66;99852.09;5487860;26;19952;-75
2024/04/24 05:14:03;;;;;;;;;;;;;;;9.30;81.77;99844.69;5508538;26;19951;-75
2024/04/24 05:16:55;;;;;;;;;;;;;;;9.17;81.29;99845.72;5487822;26;19951;-78
2024/04/24 05:19:47;;;;;;;;;;;;;;;9.02;81.25;99840.84;5487576;26;19952;-79
2024/04/24 05:22:46;;;;;;;;;;;;;;;8.88;82.09;99840.28;5486014;26;19955;-78
2024/04/24 05:25:38;;;;;;;;;;;;;;;8.95;82.52;99845.97;5486120;26;19952;-75
2024/04/24 05:31:39;;;;;;;;;;;;;;;8.75;83.40;99850.19;5487869;26;19971;-75
2024/04/24 05:34:29;;;;;;;;;;;;;;;8.72;83.99;99860.88;5487763;26;19971;-77
2024/04/24 05:37:18;;;;;;;;;;;;;;;8.61;84.42;99856.94;5491799;25;20026;-76
2024/04/24 05:40:08;;;;;;;;;;;;;;;8.92;84.07;99857.47;5521990;26;19923;-76
2024/04/24 05:43:00;;;;;;;;;;;;;;;8.67;84.83;99864.56;5521857;26;19964;-76
2024/04/24 05:45:50;;;;;;;;;;;;;;;8.51;85.62;99856.16;5523028;25;20331;-77
2024/04/24 05:48:42;;;;;;;;;;;;;;;8.54;86.13;99854.72;5523349;26;19951;-76
2024/04/24 05:51:34;;;;;;;;;;;;;;;8.57;86.56;99859.50;5524674;25;19951;-77
2024/04/24 05:54:29;;;;;;;;;;;;;;;8.41;87.31;99864.63;5522203;26;19951;-76
2024/04/24 05:57:22;;;;;;;;;;;;;;;8.63;86.86;99862.84;5496758;26;19951;-76
2024/04/24 06:00:15;;;;;;;;;;;;;;;8.73;86.18;99859.78;5521816;25;19955;-76
2024/04/24 06:03:06;;;;;;;;;;;;;;;8.70;85.95;99868.53;5496629;26;19939;-75
2024/04/24 06:05:58;;;;;;;;;;;;;;;8.89;85.84;99880.59;5522154;25;19951;-78
2024/04/24 06:08:50;;;;;;;;;;;;;;;8.96;86.02;99869.25;5506361;26;19951;-76
2024/04/24 06:11:40;;;;;;;;;;;;;;;8.83;86.42;99872.97;5485565;26;19952;-77
2024/04/24 06:14:29;;;;;;;;;;;;;;;8.95;85.71;99865.75;5489691;26;19951;-76
2024/04/24 06:17:19;;;;;;;;;;;;;;;8.48;87.08;99870.34;5489140;26;19952;-75
2024/04/24 06:20:11;;;;;;;;;;;;;;;8.74;87.09;99874.91;5489924;26;20588;-77
2024/04/24 06:23:03;;;;;;;;;;;;;;;8.36;88.20;99883.75;5489791;26;19948;-77
2024/04/24 06:25:52;;;;;;;;;;;;;;;8.41;89.66;99896.34;5490554;26;20358;-77
2024/04/24 06:28:44;;;;;;;;;;;;;;;8.48;89.44;99889.31;5492036;26;19952;-79
2024/04/24 06:31:36;;;;;;;;;;;;;;;8.63;90.05;99892.66;5491211;26;19956;-77
2024/04/24 06:34:28;;;;;;;;;;;;;;;8.68;89.22;99897.91;5490210;26;19959;-77
2024/04/24 06:37:20;;;;;;;;;;;;;;;8.69;89.12;99894.03;5491865;26;19947;-77
2024/04/24 06:40:12;;;;;;;;;;;;;;;8.87;88.92;99906.44;5465701;26;19948;-76
2024/04/24 06:43:01;;;;;;;;;;;;;;;8.67;88.88;99910.66;5489905;26;19948;-77
2024/04/24 06:45:51;;;;;;;;;;;;;;;8.64;88.88;99911.28;5495053;26;20303;-77
2024/04/24 06:48:41;;;;;;;;;;;;;;;8.48;89.55;99916.41;5489242;26;19952;-77
2024/04/24 06:51:33;;;;;;;;;;;;;;;9.20;89.49;99926.41;5514973;26;19955;-78
2024/04/24 06:54:25;;;;;;;;;;;;;;;9.21;87.41;99910.94;5526075;26;19947;-77
2024/04/24 06:57:17;;;;;;;;;;;;;;;9.20;86.83;99921.00;5500204;26;19947;-77
2024/04/24 07:00:09;;;;;;;;;;;;;;;9.36;86.31;99919.34;5526928;26;19951;-78
2024/04/24 07:03:01;;;;;;;;;;;;;;;9.43;85.44;99919.63;5525456;26;19951;-77
2024/04/24 07:05:51;;;;;;;;;;;;;;;9.45;84.22;99919.28;5525244;26;19951;-77
2024/04/24 07:08:43;;;;;;;;;;;;;;;9.43;83.75;99913.41;5527546;26;19951;-79
2024/04/24 07:11:35;;;;;;;;;;;;;;;9.30;84.60;99917.94;5527215;26;19951;-77
2024/04/24 07:14:24;;;;;;;;;;;;;;;9.19;84.25;99924.06;5525932;26;19958;-78
2024/04/24 07:17:14;;;;;;;;;;;;;;;9.42;83.69;99918.03;5526468;26;20393;-77
2024/04/24 07:20:06;;;;;;;;;;;;;;;9.53;83.47;99925.81;5526284;26;19951;-78
2024/04/24 07:22:58;;;;;;;;;;;;;;;9.33;82.91;99917.28;5498781;26;19955;-78
2024/04/24 07:25:50;;;;;;;;;;;;;;;9.40;83.60;99922.97;5526728;26;19951;-77
2024/04/24 07:28:39;;;;;;;;;;;;;;;9.48;82.98;99917.84;5525633;26;20309;-78
2024/04/24 07:31:31;;;;;;;;;;;;;;;9.62;82.43;99919.22;5526240;26;19959;-77
2024/04/24 07:34:28;;;;;;;;;;;;;;;9.56;81.72;99915.09;5496514;25;19952;-78
2024/04/24 07:37:20;;;;;;;;;;;;;;;9.83;81.10;99911.09;5500938;25;19948;-77
2024/04/24 07:40:10;;;;;;;;;;;;;;;10.24;80.03;99915.78;5517356;25;19963;-78
2024/04/24 07:42:59;;;;;;;;;;;;;;;10.47;78.83;99905.34;5517570;25;19949;-77
2024/04/24 07:45:51;;;;;;;;;;;;;;;10.71;78.61;99908.16;5525714;25;19951;-78
2024/04/24 07:48:38;;;;;;;;;;;;;;;10.18;77.79;99901.59;5525698;25;19968;-78
2024/04/24 07:51:28;;;;;;;;;;;;;;;9.87;78.66;99907.38;5514804;25;20399;-77
2024/04/24 07:54:20;;;;;;;;;;;;;;;9.78;81.24;99916.72;5511104;25;19951;-77
2024/04/24 07:57:12;;;;;;;;;;;;;;;9.71;81.68;99925.38;5505778;25;19951;-79
2024/04/24 08:00:02;;;;;;;;;;;;;;;10.07;80.58;99922.09;5515993;25;19951;-77
2024/04/24 08:03:01;;;;;;;;;;;;;;;9.88;79.21;99913.63;5503007;25;20389;-77
2024/04/24 08:05:53;;;;;;;;;;;;;;;9.60;80.27;99920.69;5517059;25;20420;-77
2024/04/24 08:08:45;;;;;;;;;;;;;;;9.81;80.57;99924.19;5507981;25;19962;-76
2024/04/24 08:11:37;;;;;;;;;;;;;;;9.96;78.79;99920.09;5516515;25;20388;-77
2024/04/24 08:14:29;;;;;;;;;;;;;;;10.15;78.18;99918.53;5513733;25;19967;-77
2024/04/24 08:17:18;;;;;;;;;;;;;;;10.09;77.22;99917.16;5516110;25;19959;-77
2024/04/24 08:20:10;;;;;;;;;;;;;;;10.09;77.51;99913.63;5492877;25;20276;-78
2024/04/24 08:23:00;;;;;;;;;;;;;;;10.21;78.67;99916.44;5513336;25;19955;-77
2024/04/24 08:25:52;;;;;;;;;;;;;;;10.49;76.99;99913.97;5527137;25;19970;-77
2024/04/24 08:28:44;;;;;;;;;;;;;;;10.16;78.74;99925.56;5530447;25;19963;-78
2024/04/24 08:31:36;;;;;;;;;;;;;;;10.28;79.41;99933.00;5524909;25;19959;-77
2024/04/24 08:34:28;;;;;;;;;;;;;;;10.15;78.73;99943.00;5515773;25;19947;-79
2024/04/24 08:37:18;;;;;;;;;;;;;;;10.29;77.37;99929.97;5509141;25;19947;-78
2024/04/24 08:40:07;;;;;;;;;;;;;;;10.38;77.20;99932.59;5476177;25;19951;-78
2024/04/24 08:42:59;;;;;;;;;;;;;;;10.62;77.11;99929.19;5521705;25;19970;-77
2024/04/24 08:45:53;;;;;;;;;;;;;;;10.28;74.44;99922.13;5523480;25;20293;-77
2024/04/24 08:48:45;;;;;;;;;;;;;;;10.27;75.11;99921.34;5514222;25;19951;-78
2024/04/24 08:51:43;;;;;;;;;;;;;;;10.30;76.04;99933.47;5525581;25;19955;-77
2024/04/24 08:54:34;;;;;;;;;;;;;;;10.32;76.34;99938.56;5524061;26;19952;-78
2024/04/24 08:57:23;;;;;;;;;;;;;;;10.40;75.09;99929.56;5523171;25;19947;-77
2024/04/24 09:00:14;;;;;;;;;;;;;;;10.37;76.16;99935.63;5530368;25;19946;-77
2024/04/24 09:03:15;;;;;;;;;;;;;;;10.37;75.50;99939.16;5525382;25;19967;-77
2024/04/24 09:06:02;;;;;;;;;;;;;;;10.50;75.34;99940.03;5523861;25;19959;-77
2024/04/24 09:08:53;;;;;;;;;;;;;;;10.39;75.94;99927.97;5531849;25;19951;-77
2024/04/24 09:11:45;;;;;;;;;;;;;;;10.38;75.19;99929.88;5531008;25;19951;-78
2024/04/24 09:14:37;;;;;;;;;;;;;;;10.77;75.48;99930.50;5487072;26;19952;-79
2024/04/24 09:17:29;;;;;;;;;;;;;;;10.58;74.42;99941.84;5514139;25;19951;-77
2024/04/24 09:20:19;;;;;;;;;;;;;;;10.55;74.34;99940.63;5523929;26;19939;-78
2024/04/24 09:23:11;;;;;;;;;;;;;;;10.65;75.14;99939.41;5508103;25;20530;-79
2024/04/24 09:26:08;;;;;;;;;;;;;;;10.89;72.18;99928.59;5502555;25;19923;-77
2024/04/24 09:29:00;;;;;;;;;;;;;;;10.83;72.26;99934.56;5514619;25;19948;-77
2024/04/24 09:31:52;;;;;;;;;;;;;;;10.92;70.84;99919.75;5524737;25;19951;-77
2024/04/24 09:34:47;;;;;;;;;;;;;;;10.86;72.20;99929.28;5519196;25;19951;-77
2024/04/24 09:37:39;;;;;;;;;;;;;;;10.85;71.65;99933.13;5511109;25;19940;-77
2024/04/24 09:40:29;;;;;;;;;;;;;;;10.99;72.14;99928.16;5525004;25;19971;-77
2024/04/24 09:43:22;;;;;;;;;;;;;;;11.03;73.01;99931.78;5522443;25;19955;-78
2024/04/24 09:46:11;;;;;;;;;;;;;;;10.87;70.86;99927.34;5525124;25;19955;-78
2024/04/24 09:49:01;;;;;;;;;;;;;;;11.01;71.04;99917.75;5521718;25;20221;-77
2024/04/24 09:51:52;;;;;;;;;;;;;;;11.46;70.94;99930.50;5499349;25;19952;-77
2024/04/24 09:54:42;;;;;;;;;;;;;;;11.31;71.29;99925.72;5504735;25;19951;-77
2024/04/24 09:57:41;;;;;;;;;;;;;;;11.43;70.23;99920.25;5510829;26;19952;-77
2024/04/24 10:00:33;;;;;;;;;;;;;;;11.01;71.03;99915.03;5513894;26;19924;-77
2024/04/24 10:03:28;;;;;;;;;;;;;;;11.18;70.61;99918.66;5488627;25;19959;-80
2024/04/24 10:06:21;;;;;;;;;;;;;;;11.02;70.51;99919.31;5530753;25;19951;-77
2024/04/24 10:09:12;;;;;;;;;;;;;;;10.90;70.55;99916.59;5545702;25;19951;-78
2024/04/24 10:12:06;;;;;;;;;;;;;;;10.88;71.26;99918.84;5533247;25;19952;-77
2024/04/24 10:15:14;;;;;;;;;;;;;;;10.94;71.21;99920.22;5497808;25;19952;-77
2024/04/24 10:18:04;;;;;;;;;;;;;;;11.24;71.28;99918.09;5513956;25;19963;-77
2024/04/24 10:20:54;;;;;;;;;;;;;;;11.18;71.78;99924.91;5542754;25;19939;-77
2024/04/24 10:23:47;;;;;;;;;;;;;;;11.20;70.14;99914.47;5531695;25;19947;-78
2024/04/24 10:26:38;;;;;;;;;;;;;;;10.88;70.45;99918.84;5498402;26;19940;-77
2024/04/24 10:29:31;;;;;;;;;;;;;;;10.73;71.22;99928.44;5481586;25;19940;-79
2024/04/24 10:32:26;;;;;;;;;;;;;;;10.84;70.31;99926.09;5491192;25;19948;-77
2024/04/24 10:35:19;;;;;;;;;;;;;;;10.99;70.86;99917.28;5491278;25;19948;-77
2024/04/24 10:38:11;;;;;;;;;;;;;;;11.17;71.83;99920.59;5495961;25;19951;-77
2024/04/24 10:41:03;;;;;;;;;;;;;;;11.37;69.46;99910.75;5490616;25;19948;-77
2024/04/24 10:43:57;;;;;;;;;;;;;;;11.22;69.12;99909.50;5488231;25;19959;-78
2024/04/24 10:46:49;;;;;;;;;;;;;;;11.69;69.19;99906.31;5488873;25;20409;-77
2024/04/24 10:49:39;;;;;;;;;;;;;;;11.60;67.74;99906.44;5488452;26;19947;-77
2024/04/24 10:52:29;;;;;;;;;;;;;;;11.55;68.17;99903.94;5490988;26;20354;-77
2024/04/24 10:55:21;;;;;;;;;;;;;;;11.51;68.93;99903.03;5463590;25;19948;-79
2024/04/24 10:58:22;;;;;;;;;;;;;;;11.34;69.57;99908.69;5507855;25;19947;-77
2024/04/24 11:01:17;;;;;;;;;;;;;;;11.36;70.02;99901.00;5489080;25;19948;-77
2024/04/24 11:04:09;;;;;;;;;;;;;;;11.67;70.75;99909.38;5490054;25;19952;-77
2024/04/24 11:06:58;;;;;;;;;;;;;;;11.53;70.82;99906.19;5484796;25;19951;-78
2024/04/24 11:09:52;;;;;;;;;;;;;;;11.38;70.76;99898.72;5506311;25;19949;-79
2024/04/24 11:12:44;;;;;;;;;;;;;;;11.49;70.01;99906.09;5495664;26;19952;-79
2024/04/24 11:15:36;;;;;;;;;;;;;;;11.55;71.45;99903.94;5508982;26;20293;-79
2024/04/24 11:18:29;;;;;;;;;;;;;;;11.54;69.67;99908.59;5488008;26;19952;-78
2024/04/24 11:21:25;;;;;;;;;;;;;;;11.70;69.73;99903.25;5497193;25;19959;-77
2024/04/24 11:24:17;;;;;;;;;;;;;;;12.50;67.84;99899.75;5521376;25;19951;-78
2024/04/24 11:27:09;;;;;;;;;;;;;;;12.46;67.73;99883.28;5525742;25;19978;-76
2024/04/24 11:30:06;;;;;;;;;;;;;;;12.47;68.06;99898.53;5507059;25;20042;-79
2024/04/24 11:32:58;;;;;;;;;;;;;;;12.35;65.90;99890.38;5475777;25;19944;-77
2024/04/24 11:35:51;;;;;;;;;;;;;;;12.64;65.65;99890.03;5488008;25;19952;-78
2024/04/24 11:38:43;;;;;;;;;;;;;;;13.07;64.17;99880.22;5488957;26;20401;-77
2024/04/24 11:41:36;;;;;;;;;;;;;;;12.73;64.52;99877.03;5497284;26;19948;-77
2024/04/24 11:44:28;;;;;;;;;;;;;;;12.82;62.82;99866.75;5501233;25;19952;-77
2024/04/24 11:47:18;;;;;;;;;;;;;;;12.93;63.87;99880.66;5495575;25;19923;-79
2024/04/24 11:50:10;;;;;;;;;;;;;;;13.20;63.01;99879.03;5478130;25;20389;-78
2024/04/24 11:53:03;;;;;;;;;;;;;;;13.16;62.69;99880.84;5499387;25;20405;-77
2024/04/24 11:55:58;;;;;;;;;;;;;;;13.24;60.94;99872.50;5488001;25;19956;-77
2024/04/24 11:58:48;;;;;;;;;;;;;;;12.97;60.55;99876.06;5488355;25;20377;-78
2024/04/24 12:01:41;;;;;;;;;;;;;;;12.83;60.81;99868.34;5488676;26;20293;-78
2024/04/24 12:04:33;;;;;;;;;;;;;;;12.68;61.95;99868.31;5478886;25;19955;-79
2024/04/24 12:07:28;;;;;;;;;;;;;;;13.00;61.88;99863.69;5463024;26;19940;-78
2024/04/24 12:10:23;;;;;;;;;;;;;;;13.22;60.46;99863.88;5473074;25;19975;-79
2024/04/24 12:13:16;;;;;;;;;;;;;;;13.19;62.03;99855.59;5487074;25;19951;-77
2024/04/24 12:16:08;;;;;;;;;;;;;;;13.31;62.15;99846.53;5487688;25;20321;-79
2024/04/24 12:19:00;;;;;;;;;;;;;;;13.62;59.96;99854.63;5488121;25;19955;-78
2024/04/24 12:21:49;;;;;;;;;;;;;;;13.70;57.20;99842.75;5489063;25;20405;-78
2024/04/24 12:24:41;;;;;;;;;;;;;;;13.71;57.69;99845.09;5504135;25;19952;-77
2024/04/24 12:27:31;;;;;;;;;;;;;;;13.74;55.48;99845.53;5488509;25;19939;-77
2024/04/24 12:30:20;;;;;;;;;;;;;;;13.87;55.90;99841.50;5488310;25;19951;-77
2024/04/24 12:33:10;;;;;;;;;;;;;;;13.75;56.76;99847.13;5486679;25;19952;-80
2024/04/24 12:35:59;;;;;;;;;;;;;;;13.53;59.00;99845.84;5487662;25;19952;-78
2024/04/24 12:38:49;;;;;;;;;;;;;;;13.24;56.09;99834.28;5488018;25;20409;-77
2024/04/24 12:41:39;;;;;;;;;;;;;;;13.71;56.57;99834.16;5489812;25;19952;-79
2024/04/24 12:44:31;;;;;;;;;;;;;;;13.56;58.35;99832.25;5480158;26;19923;-77
2024/04/24 12:47:26;;;;;;;;;;;;;;;13.56;57.71;99829.53;5495824;25;19947;-77
2024/04/24 12:50:18;;;;;;;;;;;;;;;13.55;57.88;99824.44;5513933;25;19924;-77
2024/04/24 12:53:10;;;;;;;;;;;;;;;13.46;58.27;99821.91;5492962;25;20290;-77
2024/04/24 12:56:02;;;;;;;;;;;;;;;13.55;57.87;99822.50;5496397;25;20114;-78
2024/04/24 12:58:52;;;;;;;;;;;;;;;13.41;59.86;99826.88;5499901;25;20572;-78
2024/04/24 13:01:42;;;;;;;;;;;;;;;13.25;59.52;99822.22;5519750;25;19947;-78
2024/04/24 13:04:34;;;;;;;;;;;;;;;13.28;60.68;99820.72;5476610;26;20377;-77
2024/04/24 13:07:23;;;;;;;;;;;;;;;13.36;58.69;99816.22;5496832;25;19951;-78
2024/04/24 13:10:13;;;;;;;;;;;;;;;13.46;57.44;99815.66;5471804;25;20308;-76
2024/04/24 13:13:05;;;;;;;;;;;;;;;13.31;57.73;99805.56;5484243;25;20480;-75
2024/04/24 13:15:52;;;;;;;;;;;;;;;13.22;58.34;99801.06;5484942;25;19952;-77
2024/04/24 13:18:42;;;;;;;;;;;;;;;13.19;59.13;99798.28;5486959;26;19940;-78
2024/04/24 13:21:34;;;;;;;;;;;;;;;12.99;57.74;99793.88;5498118;26;20002;-79
2024/04/24 13:24:24;;;;;;;;;;;;;;;13.22;57.16;99798.34;5496027;25;19951;-78
2024/04/24 13:27:16;;;;;;;;;;;;;;;13.34;56.24;99789.25;5468232;25;19939;-78
2024/04/24 13:30:08;;;;;;;;;;;;;;;13.42;57.56;99793.72;5487911;25;19971;-78
2024/04/24 13:33:01;;;;;;;;;;;;;;;13.43;56.93;99789.06;5489383;25;19951;-77
2024/04/24 13:35:53;;;;;;;;;;;;;;;13.42;57.52;99792.91;5499436;25;19951;-76
2024/04/24 13:38:45;;;;;;;;;;;;;;;13.58;58.28;99786.28;5485109;26;19944;-76
2024/04/24 13:41:37;;;;;;;;;;;;;;;13.52;57.17;99782.22;5492299;26;19952;-78
2024/04/24 13:44:27;;;;;;;;;;;;;;;13.64;57.12;99779.38;5487679;25;20293;-78
2024/04/24 13:47:18;;;;;;;;;;;;;;;13.71;57.88;99776.03;5486258;25;19956;-79
2024/04/24 13:50:10;;;;;;;;;;;;;;;13.85;57.85;99779.03;5493382;25;19947;-78
2024/04/24 13:53:07;;;;;;;;;;;;;;;14.00;57.86;99786.38;5494758;25;20303;-77
2024/04/24 13:56:00;;;;;;;;;;;;;;;14.14;56.68;99788.56;5464509;25;19940;-77
2024/04/24 13:58:49;;;;;;;;;;;;;;;14.28;56.12;99786.09;5492950;25;20397;-78
2024/04/24 14:01:41;;;;;;;;;;;;;;;14.59;53.25;99778.88;5461008;26;19940;-78
2024/04/24 14:04:31;;;;;;;;;;;;;;;13.58;55.03;99769.88;5509024;25;19950;-78
2024/04/24 14:07:23;;;;;;;;;;;;;;;13.54;55.62;99770.97;5484029;25;19947;-76
2024/04/24 14:10:10;;;;;;;;;;;;;;;13.24;57.47;99771.50;5508950;25;19948;-77
2024/04/24 14:13:02;;;;;;;;;;;;;;;13.26;57.45;99774.63;5514193;25;19948;-78
2024/04/24 14:15:54;;;;;;;;;;;;;;;13.28;58.36;99766.91;5523728;25;20396;-77
2024/04/24 14:18:46;;;;;;;;;;;;;;;13.20;58.29;99762.44;5510885;25;19971;-78
2024/04/24 14:21:36;;;;;;;;;;;;;;;13.54;57.96;99768.22;5512660;26;19951;-78
2024/04/24 14:24:28;;;;;;;;;;;;;;;13.26;58.13;99768.38;5504458;25;19948;-79
2024/04/24 14:27:20;;;;;;;;;;;;;;;13.13;57.56;99769.66;5493554;26;19955;-78
2024/04/24 14:30:09;;;;;;;;;;;;;;;13.13;58.23;99769.66;5490224;26;19964;-78
2024/04/24 14:33:01;;;;;;;;;;;;;;;13.03;57.98;99767.44;5487151;25;19960;-78
2024/04/24 14:35:53;;;;;;;;;;;;;;;13.14;59.14;99771.25;5510991;25;19947;-77
2024/04/24 14:38:46;;;;;;;;;;;;;;;13.10;59.39;99767.63;5497011;26;19952;-77
2024/04/24 14:41:35;;;;;;;;;;;;;;;12.86;60.94;99774.06;5518211;25;19963;-77
2024/04/24 14:44:25;;;;;;;;;;;;;;;12.90;65.27;99779.63;5499337;26;19951;-78
2024/04/24 14:47:17;;;;;;;;;;;;;;;12.82;66.83;99781.38;5519568;26;19940;-77
2024/04/24 14:50:07;;;;;;;;;;;;;;;13.11;66.48;99788.28;5463529;26;20713;-78
2024/04/24 14:52:58;;;;;;;;;;;;;;;13.06;63.29;99777.63;5488662;25;19948;-78
2024/04/24 14:55:50;;;;;;;;;;;;;;;12.59;65.33;99781.22;5508078;25;19948;-77
2024/04/24 14:58:42;;;;;;;;;;;;;;;14.51;62.29;99797.91;5510781;26;19951;-78
2024/04/24 15:01:34;;;;;;;;;;;;;;;13.40;62.83;99795.25;5515024;26;19952;-79
2024/04/24 15:04:24;;;;;;;;;;;;;;;12.26;66.03;99797.84;5511737;25;19955;-78
2024/04/24 15:07:16;;;;;;;;;;;;;;;11.59;68.80;99812.25;5499482;26;19951;-75